createdAt,value
2023-01-03T00:00:15.078Z,1009.9
2023-01-03T00:01:31.357Z,1009.9
2023-01-03T00:02:47.663Z,1009.9
2023-01-03T00:04:03.950Z,1010
2023-01-03T00:05:20.239Z,1010
2023-01-03T00:06:35.548Z,1010
2023-01-03T00:07:51.847Z,1010
2023-01-03T00:09:08.138Z,1010
2023-01-03T00:10:24.436Z,1010
2023-01-03T00:11:40.735Z,1010.1
2023-01-03T00:12:57.026Z,1010.1
2023-01-03T00:14:13.302Z,1010.1
2023-01-03T00:15:29.605Z,1010.1
2023-01-03T00:16:45.904Z,1010.1
2023-01-03T00:18:02.184Z,1010.1
2023-01-03T00:19:18.477Z,1010.2
2023-01-03T00:20:34.767Z,1010.2
2023-01-03T00:21:51.058Z,1010.2
2023-01-03T00:23:06.383Z,1010.2
2023-01-03T00:24:22.671Z,1010.2
2023-01-03T00:25:38.964Z,1010.2
2023-01-03T00:26:55.253Z,1010.2
2023-01-03T00:28:11.552Z,1010.2
2023-01-03T00:29:27.850Z,1010.2
2023-01-03T00:30:44.123Z,1010.2
2023-01-03T00:32:00.429Z,1010.2
2023-01-03T00:33:16.724Z,1010.2
2023-01-03T00:34:33.017Z,1010.2
2023-01-03T00:35:49.299Z,1010.2
2023-01-03T00:37:05.602Z,1010.3
2023-01-03T00:38:21.891Z,1010.3
2023-01-03T00:39:37.211Z,1010.2
2023-01-03T00:40:53.498Z,1010.2
2023-01-03T00:42:09.777Z,1010.2
2023-01-03T00:43:26.077Z,1010.3
2023-01-03T00:44:42.370Z,1010.2
2023-01-03T00:45:58.662Z,1010.2
2023-01-03T00:47:14.964Z,1010.2
2023-01-03T00:48:31.252Z,1010.3
2023-01-03T00:49:47.538Z,1010.3
2023-01-03T00:51:03.841Z,1010.3
2023-01-03T00:52:20.125Z,1010.4
2023-01-03T00:53:36.431Z,1010.4
2023-01-03T00:54:52.714Z,1010.4
2023-01-03T00:56:08.021Z,1010.4
2023-01-03T00:57:24.304Z,1010.5
2023-01-03T00:58:40.597Z,1010.5
2023-01-03T00:59:56.906Z,1010.5
2023-01-03T01:01:13.197Z,1010.5
2023-01-03T01:02:29.492Z,1010.5
2023-01-03T01:03:45.768Z,1010.5
2023-01-03T01:05:02.081Z,1010.5
2023-01-03T01:06:18.357Z,1010.6
2023-01-03T01:07:34.655Z,1010.5
2023-01-03T01:08:50.958Z,1010.6
2023-01-03T01:10:07.252Z,1010.6
2023-01-03T01:11:23.537Z,1010.6
2023-01-03T01:12:38.844Z,1010.6
2023-01-03T01:13:55.130Z,1010.6
2023-01-03T01:15:11.430Z,1010.7
2023-01-03T01:16:27.719Z,1010.7
2023-01-03T01:17:44.017Z,1010.7
2023-01-03T01:19:00.312Z,1010.7
2023-01-03T01:20:16.606Z,1010.8
2023-01-03T01:21:32.891Z,1010.8
2023-01-03T01:22:49.185Z,1010.8
2023-01-03T01:24:05.481Z,1010.9
2023-01-03T01:25:21.764Z,1010.9
2023-01-03T01:26:38.068Z,1010.9
2023-01-03T01:27:54.367Z,1010.9
2023-01-03T01:29:09.660Z,1011
2023-01-03T01:30:25.961Z,1011
2023-01-03T01:31:42.245Z,1011.1
2023-01-03T01:32:58.548Z,1011.1
2023-01-03T01:34:14.842Z,1011.1
2023-01-03T01:35:31.123Z,1011.1
2023-01-03T01:36:47.421Z,1011.1
2023-01-03T01:38:03.708Z,1011.1
2023-01-03T01:39:20.013Z,1011.2
2023-01-03T01:40:36.303Z,1011.2
2023-01-03T01:41:52.591Z,1011.1
2023-01-03T01:43:08.885Z,1011.1
2023-01-03T01:44:25.170Z,1011.1
2023-01-03T01:45:40.481Z,1011.2
2023-01-03T01:46:56.787Z,1011.2
2023-01-03T01:48:13.083Z,1011.2
2023-01-03T01:49:29.369Z,1011.2
2023-01-03T01:50:45.651Z,1011.3
2023-01-03T01:52:01.953Z,1011.2
2023-01-03T01:53:18.249Z,1011.1
2023-01-03T01:54:34.531Z,1011.2
2023-01-03T01:55:50.823Z,1011.2
2023-01-03T01:57:07.116Z,1011.2
2023-01-03T01:58:23.426Z,1011.2
2023-01-03T01:59:39.708Z,1011.2
2023-01-03T02:00:56.009Z,1011.1
2023-01-03T02:02:11.309Z,1011.1
2023-01-03T02:03:27.604Z,1011.1
2023-01-03T02:04:43.904Z,1011.2
2023-01-03T02:06:00.200Z,1011.2
2023-01-03T02:07:16.476Z,1011.2
2023-01-03T02:08:32.783Z,1011.2
2023-01-03T02:09:48.100Z,1011.2
2023-01-03T02:11:04.386Z,1011.2
2023-01-03T02:12:20.667Z,1011.3
2023-01-03T02:13:36.959Z,1011.3
2023-01-03T02:14:53.258Z,1011.3
2023-01-03T02:16:09.544Z,1011.3
2023-01-03T02:17:25.840Z,1011.3
2023-01-03T02:18:42.139Z,1011.3
2023-01-03T02:19:58.437Z,1011.3
2023-01-03T02:21:14.729Z,1011.3
2023-01-03T02:22:31.017Z,1011.3
2023-01-03T02:23:47.307Z,1011.3
2023-01-03T02:25:03.600Z,1011.3
2023-01-03T02:26:18.909Z,1011.2
2023-01-03T02:27:35.200Z,1011.3
2023-01-03T02:28:51.492Z,1011.3
2023-01-03T02:30:07.783Z,1011.3
2023-01-03T02:31:24.077Z,1011.3
2023-01-03T02:32:40.378Z,1011.3
2023-01-03T02:33:56.664Z,1011.3
2023-01-03T02:35:12.959Z,1011.4
2023-01-03T02:36:29.249Z,1011.4
2023-01-03T02:37:45.555Z,1011.4
2023-01-03T02:39:01.841Z,1011.4
2023-01-03T02:40:18.141Z,1011.4
2023-01-03T02:41:34.428Z,1011.4
2023-01-03T02:42:49.732Z,1011.5
2023-01-03T02:44:06.017Z,1011.4
2023-01-03T02:45:22.310Z,1011.4
2023-01-03T02:46:38.620Z,1011.5
2023-01-03T02:47:54.914Z,1011.5
2023-01-03T02:49:11.204Z,1011.5
2023-01-03T02:50:27.491Z,1011.5
2023-01-03T02:51:43.782Z,1011.5
2023-01-03T02:53:00.082Z,1011.5
2023-01-03T02:54:16.380Z,1011.5
2023-01-03T02:55:32.656Z,1011.5
2023-01-03T02:56:48.962Z,1011.6
2023-01-03T02:58:05.241Z,1011.7
2023-01-03T02:59:20.556Z,1011.6
2023-01-03T03:00:36.847Z,1011.6
2023-01-03T03:01:53.137Z,1011.7
2023-01-03T03:03:09.433Z,1011.6
2023-01-03T03:04:25.721Z,1011.6
2023-01-03T03:05:42.011Z,1011.6
2023-01-03T03:06:58.314Z,1011.6
2023-01-03T03:08:14.600Z,1011.7
2023-01-03T03:09:30.905Z,1011.7
2023-01-03T03:10:47.200Z,1011.6
2023-01-03T03:12:03.485Z,1011.6
2023-01-03T03:13:19.783Z,1011.6
2023-01-03T03:14:36.076Z,1011.7
2023-01-03T03:15:51.385Z,1011.7
2023-01-03T03:17:07.677Z,1011.7
2023-01-03T03:18:23.977Z,1011.7
2023-01-03T03:19:40.258Z,1011.7
2023-01-03T03:20:56.550Z,1011.7
2023-01-03T03:22:12.847Z,1011.6
2023-01-03T03:23:29.136Z,1011.6
2023-01-03T03:26:01.725Z,1011.7
2023-01-03T03:27:18.016Z,1011.7
2023-01-03T03:28:34.309Z,1011.7
2023-01-03T03:29:50.612Z,1011.7
2023-01-03T03:31:06.888Z,1011.7
2023-01-03T03:32:22.215Z,1011.7
2023-01-03T03:33:38.508Z,1011.7
2023-01-03T03:34:54.790Z,1011.7
2023-01-03T03:36:11.093Z,1011.7
2023-01-03T03:37:27.383Z,1011.8
2023-01-03T03:38:43.679Z,1011.7
2023-01-03T03:39:59.961Z,1011.7
2023-01-03T03:41:16.257Z,1011.7
2023-01-03T03:42:32.548Z,1011.7
2023-01-03T03:43:48.851Z,1011.8
2023-01-03T03:45:05.129Z,1011.8
2023-01-03T03:46:21.423Z,1011.8
2023-01-03T03:47:37.716Z,1011.8
2023-01-03T03:48:53.025Z,1011.9
2023-01-03T03:50:09.320Z,1011.8
2023-01-03T03:51:25.613Z,1011.9
2023-01-03T03:52:41.906Z,1011.9
2023-01-03T03:53:58.199Z,1011.9
2023-01-03T03:55:14.500Z,1011.9
2023-01-03T03:56:30.784Z,1011.9
2023-01-03T03:57:47.083Z,1011.9
2023-01-03T03:59:03.367Z,1011.9
2023-01-03T04:00:19.668Z,1011.9
2023-01-03T04:01:35.964Z,1012
2023-01-03T04:02:52.257Z,1012
2023-01-03T04:04:08.544Z,1012
2023-01-03T04:05:23.863Z,1012
2023-01-03T04:06:40.147Z,1012.1
2023-01-03T04:07:56.431Z,1012.1
2023-01-03T04:09:12.730Z,1012.1
2023-01-03T04:10:29.031Z,1012.1
2023-01-03T04:11:45.313Z,1012.1
2023-01-03T04:13:01.601Z,1012.1
2023-01-03T04:14:17.907Z,1012.1
2023-01-03T04:15:34.196Z,1012.1
2023-01-03T04:16:50.495Z,1012.1
2023-01-03T04:18:06.778Z,1012.1
2023-01-03T04:19:23.079Z,1012.1
2023-01-03T04:20:39.364Z,1012.2
2023-01-03T04:21:54.684Z,1012.2
2023-01-03T04:23:10.971Z,1012.2
2023-01-03T04:24:27.268Z,1012.2
2023-01-03T04:25:43.549Z,1012.2
2023-01-03T04:26:59.860Z,1012.2
2023-01-03T04:28:16.145Z,1012.2
2023-01-03T04:29:32.438Z,1012.2
2023-01-03T04:30:48.729Z,1012.2
2023-01-03T04:32:05.012Z,1012.2
2023-01-03T04:33:21.310Z,1012.2
2023-01-03T04:34:37.610Z,1012.3
2023-01-03T04:35:53.909Z,1012.3
2023-01-03T04:37:10.186Z,1012.3
2023-01-03T04:38:25.504Z,1012.3
2023-01-03T04:39:41.803Z,1012.3
2023-01-03T04:40:58.091Z,1012.4
2023-01-03T04:42:14.383Z,1012.3
2023-01-03T04:43:30.668Z,1012.4
2023-01-03T04:44:46.960Z,1012.5
2023-01-03T04:46:03.265Z,1012.5
2023-01-03T04:47:19.546Z,1012.4
2023-01-03T04:48:35.838Z,1012.5
2023-01-03T04:49:52.147Z,1012.5
2023-01-03T04:51:08.427Z,1012.5
2023-01-03T04:52:24.727Z,1012.5
2023-01-03T04:53:41.008Z,1012.5
2023-01-03T04:54:56.318Z,1012.5
2023-01-03T04:56:12.623Z,1012.5
2023-01-03T04:57:28.908Z,1012.6
2023-01-03T04:58:45.208Z,1012.6
2023-01-03T05:00:01.490Z,1012.6
2023-01-03T05:01:17.786Z,1012.6
2023-01-03T05:02:34.091Z,1012.6
2023-01-03T05:03:50.369Z,1012.6
2023-01-03T05:05:06.668Z,1012.7
2023-01-03T05:06:22.969Z,1012.6
2023-01-03T05:07:39.265Z,1012.7
2023-01-03T05:08:55.557Z,1012.7
2023-01-03T05:10:11.846Z,1012.6
2023-01-03T05:11:27.150Z,1012.6
2023-01-03T05:12:43.447Z,1012.6
2023-01-03T05:13:59.727Z,1012.6
2023-01-03T05:15:16.021Z,1012.6
2023-01-03T05:16:32.324Z,1012.7
2023-01-03T05:17:48.626Z,1012.7
2023-01-03T05:19:04.912Z,1012.7
2023-01-03T05:20:21.208Z,1012.7
2023-01-03T05:21:37.490Z,1012.7
2023-01-03T05:22:53.796Z,1012.7
2023-01-03T05:24:10.076Z,1012.7
2023-01-03T05:25:26.379Z,1012.8
2023-01-03T05:26:42.664Z,1012.7
2023-01-03T05:27:57.981Z,1012.8
2023-01-03T05:29:14.259Z,1012.8
2023-01-03T05:30:30.554Z,1012.8
2023-01-03T05:31:46.842Z,1012.8
2023-01-03T05:33:03.144Z,1012.8
2023-01-03T05:34:19.434Z,1012.8
2023-01-03T05:35:35.728Z,1012.8
2023-01-03T05:36:52.021Z,1012.8
2023-01-03T05:38:08.315Z,1012.8
2023-01-03T05:39:24.617Z,1012.8
2023-01-03T05:40:40.896Z,1012.8
2023-01-03T05:41:57.201Z,1012.8
2023-01-03T05:43:13.482Z,1012.8
2023-01-03T05:44:28.808Z,1012.8
2023-01-03T05:45:45.098Z,1012.8
2023-01-03T05:47:01.384Z,1012.9
2023-01-03T05:48:17.680Z,1012.8
2023-01-03T05:49:33.976Z,1012.8
2023-01-03T05:50:50.262Z,1012.9
2023-01-03T05:52:06.545Z,1012.9
2023-01-03T05:53:22.838Z,1012.9
2023-01-03T05:54:39.143Z,1012.9
2023-01-03T05:55:55.432Z,1012.9
2023-01-03T05:57:11.728Z,1012.9
2023-01-03T05:58:28.023Z,1013
2023-01-03T05:59:44.311Z,1013
2023-01-03T06:00:59.625Z,1013
2023-01-03T06:02:15.914Z,1013
2023-01-03T06:03:32.206Z,1013.1
2023-01-03T06:04:48.502Z,1013.1
2023-01-03T06:06:04.795Z,1013.1
2023-01-03T06:07:21.082Z,1013.1
2023-01-03T06:08:37.387Z,1013.1
2023-01-03T06:09:53.664Z,1013.1
2023-01-03T06:11:09.958Z,1013.1
2023-01-03T06:12:26.262Z,1013.1
2023-01-03T06:13:42.561Z,1013.2
2023-01-03T06:14:58.842Z,1013.1
2023-01-03T06:16:15.134Z,1013.1
2023-01-03T06:17:30.441Z,1013.1
2023-01-03T06:18:46.740Z,1013.1
2023-01-03T06:20:03.024Z,1013.2
2023-01-03T06:21:19.331Z,1013.2
2023-01-03T06:22:35.608Z,1013.2
2023-01-03T06:23:51.901Z,1013.2
2023-01-03T06:25:07.217Z,1013.2
2023-01-03T06:26:23.509Z,1013.2
2023-01-03T06:27:39.812Z,1013.2
2023-01-03T06:28:56.098Z,1013.3
2023-01-03T06:30:12.386Z,1013.2
2023-01-03T06:31:28.697Z,1013.2
2023-01-03T06:32:44.984Z,1013.2
2023-01-03T06:34:01.270Z,1013.3
2023-01-03T06:35:17.563Z,1013.3
2023-01-03T06:36:33.856Z,1013.3
2023-01-03T06:37:50.162Z,1013.3
2023-01-03T06:39:06.448Z,1013.3
2023-01-03T06:40:22.731Z,1013.3
2023-01-03T06:41:38.052Z,1013.3
2023-01-03T06:42:54.297Z,1013.3
2023-01-03T06:44:10.527Z,1013.3
2023-01-03T06:45:26.770Z,1013.3
2023-01-03T06:46:43.004Z,1013.4
2023-01-03T06:47:59.238Z,1013.4
2023-01-03T06:49:15.485Z,1013.4
2023-01-03T06:50:31.716Z,1013.4
2023-01-03T06:51:47.969Z,1013.4
2023-01-03T06:53:04.208Z,1013.4
2023-01-03T06:54:20.445Z,1013.4
2023-01-03T06:55:36.679Z,1013.5
2023-01-03T06:56:52.915Z,1013.5
2023-01-03T06:58:08.170Z,1013.5
2023-01-03T06:59:24.410Z,1013.5
2023-01-03T07:00:40.643Z,1013.5
2023-01-03T07:01:56.880Z,1013.6
2023-01-03T07:03:13.133Z,1013.6
2023-01-03T07:04:29.371Z,1013.6
2023-01-03T07:05:45.000Z,1013.6
2023-01-03T07:07:01.846Z,1013.6
2023-01-03T07:08:18.084Z,1013.6
2023-01-03T07:09:34.320Z,1013.7
2023-01-03T07:10:50.562Z,1013.6
2023-01-03T07:12:06.809Z,1013.7
2023-01-03T07:13:23.045Z,1013.7
2023-01-03T07:14:38.304Z,1013.7
2023-01-03T07:15:54.529Z,1013.7
2023-01-03T07:17:10.761Z,1013.7
2023-01-03T07:18:27.003Z,1013.8
2023-01-03T07:19:43.248Z,1013.7
2023-01-03T07:20:59.483Z,1013.8
2023-01-03T07:22:15.731Z,1013.8
2023-01-03T07:23:31.963Z,1013.8
2023-01-03T07:24:48.202Z,1013.8
2023-01-03T07:26:04.439Z,1013.8
2023-01-03T07:27:20.682Z,1013.8
2023-01-03T07:28:36.915Z,1013.8
2023-01-03T07:29:53.157Z,1013.9
2023-01-03T07:31:08.423Z,1013.9
2023-01-03T07:32:24.649Z,1013.9
2023-01-03T07:33:40.886Z,1013.9
2023-01-03T07:34:57.133Z,1013.9
2023-01-03T07:36:13.381Z,1013.9
2023-01-03T07:37:29.614Z,1014
2023-01-03T07:38:45.847Z,1014
2023-01-03T07:40:02.081Z,1014
2023-01-03T07:41:18.334Z,1014
2023-01-03T07:42:34.560Z,1014
2023-01-03T07:43:50.810Z,1014
2023-01-03T07:45:07.045Z,1014
2023-01-03T07:46:23.290Z,1014.1
2023-01-03T07:47:38.536Z,1014
2023-01-03T07:48:54.772Z,1014
2023-01-03T07:50:11.009Z,1014.1
2023-01-03T07:51:27.250Z,1014.1
2023-01-03T07:52:43.494Z,1014.1
2023-01-03T07:53:59.747Z,1014.2
2023-01-03T07:55:15.977Z,1014.2
2023-01-03T07:56:32.221Z,1014.3
2023-01-03T07:57:48.460Z,1014.2
2023-01-03T07:59:04.698Z,1014.2
2023-01-03T08:00:20.925Z,1014.3
2023-01-03T08:01:37.176Z,1014.3
2023-01-03T08:02:53.404Z,1014.3
2023-01-03T08:04:08.666Z,1014.3
2023-01-03T08:05:24.877Z,1014.2
2023-01-03T08:06:41.121Z,1014.2
2023-01-03T08:07:57.364Z,1014.2
2023-01-03T08:09:13.604Z,1014.2
2023-01-03T08:10:29.838Z,1014.2
2023-01-03T08:11:46.083Z,1014.1
2023-01-03T08:13:02.303Z,1014.1
2023-01-03T08:14:18.554Z,1014.1
2023-01-03T08:15:34.782Z,1014.1
2023-01-03T08:16:51.029Z,1014.1
2023-01-03T08:18:07.274Z,1014.2
2023-01-03T08:19:23.508Z,1014.3
2023-01-03T08:20:38.752Z,1014.3
2023-01-03T08:21:55.003Z,1014.3
2023-01-03T08:23:11.250Z,1014.3
2023-01-03T08:24:27.471Z,1014.3
2023-01-03T08:25:43.726Z,1014.4
2023-01-03T08:26:59.947Z,1014.4
2023-01-03T08:28:16.192Z,1014.4
2023-01-03T08:29:32.428Z,1014.4
2023-01-03T08:30:48.666Z,1014.5
2023-01-03T08:32:04.910Z,1014.5
2023-01-03T08:33:21.159Z,1014.5
2023-01-03T08:34:37.392Z,1014.5
2023-01-03T08:35:53.636Z,1014.5
2023-01-03T08:37:08.888Z,1014.4
2023-01-03T08:38:25.134Z,1014.4
2023-01-03T08:39:41.354Z,1014.3
2023-01-03T08:40:57.612Z,1014.4
2023-01-03T08:42:13.848Z,1014.4
2023-01-03T08:43:30.088Z,1014.4
2023-01-03T08:44:46.321Z,1014.4
2023-01-03T08:46:02.555Z,1014.4
2023-01-03T08:47:18.807Z,1014.4
2023-01-03T08:48:35.037Z,1014.4
2023-01-03T08:49:51.286Z,1014.4
2023-01-03T08:51:07.522Z,1014.4
2023-01-03T08:52:23.751Z,1014.3
2023-01-03T08:53:39.010Z,1014.4
2023-01-03T08:54:55.253Z,1014.3
2023-01-03T08:56:11.488Z,1014.3
2023-01-03T08:57:27.735Z,1014.3
2023-01-03T08:58:43.972Z,1014.4
2023-01-03T09:00:00.202Z,1014.4
2023-01-03T09:01:16.446Z,1014.3
2023-01-03T09:02:32.690Z,1014.4
2023-01-03T09:03:48.911Z,1014.4
2023-01-03T09:05:05.149Z,1014.4
2023-01-03T09:06:21.392Z,1014.5
2023-01-03T09:07:37.627Z,1014.5
2023-01-03T09:08:53.871Z,1014.5
2023-01-03T09:10:09.136Z,1014.5
2023-01-03T09:11:25.379Z,1014.6
2023-01-03T09:12:41.612Z,1014.6
2023-01-03T09:13:57.852Z,1014.6
2023-01-03T09:15:14.076Z,1014.6
2023-01-03T09:16:30.332Z,1014.6
2023-01-03T09:17:46.554Z,1014.5
2023-01-03T09:19:02.801Z,1014.5
2023-01-03T09:20:19.050Z,1014.5
2023-01-03T09:21:35.278Z,1014.5
2023-01-03T09:22:51.527Z,1014.5
2023-01-03T09:24:07.756Z,1014.5
2023-01-03T09:25:24.004Z,1014.5
2023-01-03T09:26:39.261Z,1014.5
2023-01-03T09:27:55.480Z,1014.5
2023-01-03T09:29:11.726Z,1014.4
2023-01-03T09:30:27.977Z,1014.5
2023-01-03T09:31:44.208Z,1014.4
2023-01-03T09:33:00.440Z,1014.5
2023-01-03T09:34:16.676Z,1014.4
2023-01-03T09:35:32.929Z,1014.4
2023-01-03T09:36:49.156Z,1014.4
2023-01-03T09:38:05.392Z,1014.4
2023-01-03T09:39:21.641Z,1014.4
2023-01-03T09:40:37.888Z,1014.4
2023-01-03T09:41:54.111Z,1014.4
2023-01-03T09:43:09.374Z,1014.3
2023-01-03T09:44:25.601Z,1014.4
2023-01-03T09:45:41.838Z,1014.4
2023-01-03T09:46:58.092Z,1014.4
2023-01-03T09:48:14.321Z,1014.4
2023-01-03T09:49:30.558Z,1014.4
2023-01-03T09:50:46.803Z,1014.4
2023-01-03T09:52:03.034Z,1014.4
2023-01-03T09:53:19.273Z,1014.5
2023-01-03T09:54:35.513Z,1014.5
2023-01-03T09:55:51.746Z,1014.5
2023-01-03T09:57:07.985Z,1014.6
2023-01-03T09:58:24.242Z,1014.5
2023-01-03T09:59:39.490Z,1014.6
2023-01-03T10:00:55.721Z,1014.5
2023-01-03T10:02:11.958Z,1014.6
2023-01-03T10:03:28.199Z,1014.6
2023-01-03T10:04:44.434Z,1014.6
2023-01-03T10:06:00.691Z,1014.6
2023-01-03T10:07:16.929Z,1014.5
2023-01-03T10:08:33.167Z,1014.6
2023-01-03T10:09:49.391Z,1014.6
2023-01-03T10:11:05.642Z,1014.6
2023-01-03T10:12:21.873Z,1014.6
2023-01-03T10:13:38.113Z,1014.5
2023-01-03T10:14:54.347Z,1014.5
2023-01-03T10:16:09.606Z,1014.6
2023-01-03T10:17:25.849Z,1014.6
2023-01-03T10:18:42.076Z,1014.6
2023-01-03T10:19:58.318Z,1014.5
2023-01-03T10:21:14.555Z,1014.5
2023-01-03T10:22:30.796Z,1014.5
2023-01-03T10:23:47.033Z,1014.6
2023-01-03T10:25:03.274Z,1014.5
2023-01-03T10:26:19.519Z,1014.5
2023-01-03T10:27:35.764Z,1014.5
2023-01-03T10:28:51.995Z,1014.5
2023-01-03T10:30:08.234Z,1014.6
2023-01-03T10:31:24.468Z,1014.6
2023-01-03T10:33:55.974Z,1014.6
2023-01-03T10:35:12.210Z,1014.6
2023-01-03T10:36:28.432Z,1014.6
2023-01-03T10:37:44.686Z,1014.6
2023-01-03T10:39:00.915Z,1014.6
2023-01-03T10:40:16.169Z,1014.6
2023-01-03T10:41:32.418Z,1014.6
2023-01-03T10:42:48.648Z,1014.5
2023-01-03T10:44:04.901Z,1014.5
2023-01-03T10:45:21.140Z,1014.5
2023-01-03T10:46:37.375Z,1014.5
2023-01-03T10:47:53.601Z,1014.5
2023-01-03T10:49:09.842Z,1014.5
2023-01-03T10:50:26.088Z,1014.5
2023-01-03T10:51:42.317Z,1014.5
2023-01-03T10:52:58.565Z,1014.5
2023-01-03T10:54:14.814Z,1014.5
2023-01-03T10:55:31.046Z,1014.4
2023-01-03T10:56:47.410Z,1014.4
2023-01-03T10:58:03.649Z,1014.4
2023-01-03T10:59:19.891Z,1014.4
2023-01-03T11:00:36.120Z,1014.4
2023-01-03T11:01:52.358Z,1014.4
2023-01-03T11:03:08.593Z,1014.4
2023-01-03T11:04:24.832Z,1014.4
2023-01-03T11:05:41.080Z,1014.4
2023-01-03T11:06:57.306Z,1014.4
2023-01-03T11:08:13.542Z,1014.4
2023-01-03T11:09:29.794Z,1014.4
2023-01-03T11:10:46.025Z,1014.4
2023-01-03T11:12:02.274Z,1014.4
2023-01-03T11:13:17.524Z,1014.4
2023-01-03T11:14:33.771Z,1014.5
2023-01-03T11:15:49.998Z,1014.4
2023-01-03T11:17:06.233Z,1014.4
2023-01-03T11:18:22.484Z,1014.4
2023-01-03T11:19:38.710Z,1014.4
2023-01-03T11:20:54.962Z,1014.5
2023-01-03T11:22:11.192Z,1014.4
2023-01-03T11:23:27.435Z,1014.4
2023-01-03T11:24:43.667Z,1014.4
2023-01-03T11:25:59.904Z,1014.5
2023-01-03T11:27:16.155Z,1014.4
2023-01-03T11:28:32.387Z,1014.4
2023-01-03T11:29:47.649Z,1014.4
2023-01-03T11:31:03.877Z,1014.5
2023-01-03T11:32:20.117Z,1014.4
2023-01-03T11:33:36.359Z,1014.4
2023-01-03T11:34:52.597Z,1014.4
2023-01-03T11:36:08.843Z,1014.4
2023-01-03T11:37:25.063Z,1014.4
2023-01-03T11:38:41.322Z,1014.4
2023-01-03T11:39:57.547Z,1014.4
2023-01-03T11:41:13.798Z,1014.4
2023-01-03T11:42:30.029Z,1014.3
2023-01-03T11:43:46.260Z,1014.3
2023-01-03T11:45:02.494Z,1014.3
2023-01-03T11:46:17.758Z,1014.3
2023-01-03T11:47:33.988Z,1014.2
2023-01-03T11:48:50.230Z,1014.2
2023-01-03T11:50:06.485Z,1014.3
2023-01-03T11:51:22.724Z,1014.3
2023-01-03T11:52:38.962Z,1014.3
2023-01-03T11:53:55.201Z,1014.3
2023-01-03T11:55:11.426Z,1014.2
2023-01-03T11:56:27.674Z,1014.2
2023-01-03T11:57:43.908Z,1014.2
2023-01-03T11:59:00.145Z,1014.3
2023-01-03T12:00:16.376Z,1014.3
2023-01-03T12:01:32.618Z,1014.3
2023-01-03T12:02:47.886Z,1014.3
2023-01-03T12:04:04.117Z,1014.3
2023-01-03T12:05:20.363Z,1014.3
2023-01-03T12:06:36.591Z,1014.2
2023-01-03T12:07:52.837Z,1014.3
2023-01-03T12:09:09.071Z,1014.2
2023-01-03T12:10:25.306Z,1014.2
2023-01-03T12:11:41.539Z,1014.2
2023-01-03T12:12:57.783Z,1014.2
2023-01-03T12:14:14.020Z,1014.1
2023-01-03T12:15:30.265Z,1014.1
2023-01-03T12:16:46.497Z,1014.2
2023-01-03T12:18:02.748Z,1014.2
2023-01-03T12:19:18.003Z,1014.1
2023-01-03T12:20:34.247Z,1014.1
2023-01-03T12:21:50.483Z,1014.2
2023-01-03T12:23:06.721Z,1014
2023-01-03T12:24:22.966Z,1013.9
2023-01-03T12:25:39.199Z,1013.9
2023-01-03T12:26:55.437Z,1013.8
2023-01-03T12:28:11.676Z,1014
2023-01-03T12:29:27.936Z,1014.2
2023-01-03T12:30:44.162Z,1014
2023-01-03T12:32:00.421Z,1014.2
2023-01-03T12:33:16.661Z,1013.9
2023-01-03T12:34:32.901Z,1014.1
2023-01-03T12:35:48.165Z,1014
2023-01-03T12:37:04.388Z,1013.9
2023-01-03T12:38:20.635Z,1014.1
2023-01-03T12:39:36.881Z,1013.9
2023-01-03T12:40:53.111Z,1013.9
2023-01-03T12:42:09.358Z,1013.8
2023-01-03T12:43:25.600Z,1013.8
2023-01-03T12:44:41.841Z,1013.8
2023-01-03T12:45:58.085Z,1013.9
2023-01-03T12:47:14.312Z,1013.9
2023-01-03T12:48:30.548Z,1014
2023-01-03T12:49:46.797Z,1014.1
2023-01-03T12:51:03.020Z,1013.9
2023-01-03T12:52:18.286Z,1013.9
2023-01-03T12:53:34.516Z,1014
2023-01-03T12:54:50.751Z,1013.9
2023-01-03T12:56:07.005Z,1014
2023-01-03T12:57:23.243Z,1013.8
2023-01-03T12:58:39.485Z,1013.9
2023-01-03T13:01:11.969Z,1013.9
2023-01-03T13:02:28.204Z,1013.9
2023-01-03T13:03:44.435Z,1013.9
2023-01-03T13:05:00.680Z,1014
2023-01-03T13:06:16.915Z,1014
2023-01-03T13:07:33.141Z,1014
2023-01-03T13:08:48.406Z,1013.9
2023-01-03T13:10:04.651Z,1013.9
2023-01-03T13:11:20.875Z,1014
2023-01-03T13:12:37.117Z,1013.8
2023-01-03T13:13:53.360Z,1013.9
2023-01-03T13:15:09.608Z,1013.9
2023-01-03T13:16:25.828Z,1013.9
2023-01-03T13:17:42.073Z,1013.9
2023-01-03T13:18:58.307Z,1013.9
2023-01-03T13:20:14.557Z,1013.9
2023-01-03T13:21:30.782Z,1013.8
2023-01-03T13:22:47.036Z,1013.9
2023-01-03T13:24:03.268Z,1013.8
2023-01-03T13:25:18.000Z,1013.9
2023-01-03T13:26:34.761Z,1013.8
2023-01-03T13:27:50.999Z,1013.8
2023-01-03T13:29:07.231Z,1013.8
2023-01-03T13:30:23.471Z,1013.9
2023-01-03T13:31:39.708Z,1013.8
2023-01-03T13:32:55.961Z,1013.9
2023-01-03T13:34:12.193Z,1013.9
2023-01-03T13:35:28.436Z,1013.9
2023-01-03T13:36:44.678Z,1013.9
2023-01-03T13:38:00.918Z,1013.9
2023-01-03T13:39:17.156Z,1014
2023-01-03T13:40:33.379Z,1014
2023-01-03T13:41:48.644Z,1014
2023-01-03T13:43:04.879Z,1014
2023-01-03T13:44:21.116Z,1013.9
2023-01-03T13:45:37.349Z,1014
2023-01-03T13:46:53.605Z,1014
2023-01-03T13:48:09.840Z,1014
2023-01-03T13:49:26.082Z,1014
2023-01-03T13:50:42.316Z,1014
2023-01-03T13:51:58.559Z,1013.9
2023-01-03T13:53:14.778Z,1013.9
2023-01-03T13:54:31.036Z,1013.9
2023-01-03T13:55:47.262Z,1013.9
2023-01-03T13:57:03.508Z,1013.9
2023-01-03T13:58:18.756Z,1013.9
2023-01-03T13:59:34.989Z,1013.8
2023-01-03T14:00:51.232Z,1013.9
2023-01-03T14:02:07.465Z,1013.9
2023-01-03T14:03:23.716Z,1013.9
2023-01-03T14:04:39.954Z,1014
2023-01-03T14:05:56.188Z,1014
2023-01-03T14:07:12.427Z,1013.9
2023-01-03T14:08:28.673Z,1013.9
2023-01-03T14:09:44.911Z,1013.9
2023-01-03T14:11:01.139Z,1013.9
2023-01-03T14:12:17.389Z,1014
2023-01-03T14:13:33.629Z,1014
2023-01-03T14:14:48.867Z,1014
2023-01-03T14:16:05.118Z,1013.9
2023-01-03T14:17:21.364Z,1013.9
2023-01-03T14:18:37.601Z,1013.9
2023-01-03T14:19:53.833Z,1014
2023-01-03T14:21:10.070Z,1014
2023-01-03T14:22:26.313Z,1014
2023-01-03T14:23:42.550Z,1014
2023-01-03T14:24:58.785Z,1014
2023-01-03T14:26:15.020Z,1014
2023-01-03T14:27:31.264Z,1014
2023-01-03T14:28:47.492Z,1014
2023-01-03T14:30:03.733Z,1014
2023-01-03T14:31:18.996Z,1014
2023-01-03T14:32:35.238Z,1014
2023-01-03T14:33:51.481Z,1014.1
2023-01-03T14:35:07.704Z,1014.1
2023-01-03T14:36:23.956Z,1014
2023-01-03T14:37:40.178Z,1014
2023-01-03T14:38:56.416Z,1014.1
2023-01-03T14:40:12.659Z,1014.1
2023-01-03T14:41:28.897Z,1014.1
2023-01-03T14:42:45.146Z,1014.1
2023-01-03T14:44:01.381Z,1014.1
2023-01-03T14:45:17.625Z,1014.1
2023-01-03T14:46:33.864Z,1014.1
2023-01-03T14:47:49.114Z,1014.1
2023-01-03T14:49:05.361Z,1014.1
2023-01-03T14:50:21.600Z,1014.1
2023-01-03T14:51:37.825Z,1014.1
2023-01-03T14:52:54.058Z,1014.1
2023-01-03T14:54:10.308Z,1014.1
2023-01-03T14:55:25.576Z,1014.1
2023-01-03T14:56:41.795Z,1014.1
2023-01-03T14:57:58.038Z,1014.1
2023-01-03T14:59:14.289Z,1014.1
2023-01-03T15:00:30.512Z,1014.1
2023-01-03T15:01:46.761Z,1014.1
2023-01-03T15:03:02.992Z,1014.1
2023-01-03T15:04:19.230Z,1014.1
2023-01-03T15:05:35.481Z,1014.2
2023-01-03T15:06:51.722Z,1014.2
2023-01-03T15:08:07.961Z,1014.2
2023-01-03T15:09:24.195Z,1014.2
2023-01-03T15:10:40.430Z,1014.2
2023-01-03T15:11:55.684Z,1014.3
2023-01-03T15:13:11.932Z,1014.2
2023-01-03T15:14:28.167Z,1014.3
2023-01-03T15:15:44.394Z,1014.3
2023-01-03T15:17:00.634Z,1014.3
2023-01-03T15:18:16.889Z,1014.2
2023-01-03T15:19:33.119Z,1014.2
2023-01-03T15:20:49.347Z,1014.3
2023-01-03T15:22:05.601Z,1014.3
2023-01-03T15:23:21.841Z,1014.3
2023-01-03T15:24:38.073Z,1014.3
2023-01-03T15:25:54.322Z,1014.3
2023-01-03T15:27:10.553Z,1014.4
2023-01-03T15:28:25.815Z,1014.4
2023-01-03T15:29:42.049Z,1014.4
2023-01-03T15:30:58.287Z,1014.4
2023-01-03T15:32:14.527Z,1014.3
2023-01-03T15:33:30.764Z,1014.3
2023-01-03T15:34:47.006Z,1014.3
2023-01-03T15:36:03.247Z,1014.3
2023-01-03T15:37:19.469Z,1014.3
2023-01-03T15:38:35.716Z,1014.3
2023-01-03T15:39:51.947Z,1014.3
2023-01-03T15:41:08.194Z,1014.4
2023-01-03T15:42:24.424Z,1014.4
2023-01-03T15:43:40.673Z,1014.5
2023-01-03T15:44:55.929Z,1014.5
2023-01-03T15:46:12.160Z,1014.5
2023-01-03T15:47:28.414Z,1014.5
2023-01-03T15:48:44.649Z,1014.6
2023-01-03T15:50:00.887Z,1014.6
2023-01-03T15:51:17.116Z,1014.6
2023-01-03T15:52:33.420Z,1014.6
2023-01-03T15:53:49.659Z,1014.6
2023-01-03T15:55:05.889Z,1014.6
2023-01-03T15:56:22.139Z,1014.6
2023-01-03T15:57:38.430Z,1014.7
2023-01-03T15:58:54.708Z,1014.7